• Join FlightAware (Why Join?)
  • Login
  • US Flag 
10:40PM EDT


 

Airport Tracker/Info


-or-


 

Live Flight TrackerFlight Track Log ✈ GUJ333 ✈ 23-Apr-2013 ✈ VABB / BOM - VIDP / DEL

Flight Track Log - Related Links

Times and Time Zones

All times are in EDT time to prevent confusion due to time zone crossing. See the GUJ333 flight status page for this flight to view local times or setup timezone preferences in your user account.

Time Position Orientation Groundspeed Altitude Reporting Facility
EDT Latitude Longitude Course Direction KTS MPH feet Rate Location/Type
09:00PM 21.0462 73.6908 21° North  Level Estimated
09:01PM 21.1351 73.7287 22° Northeast  Level Estimated
09:02PM 21.2240 73.7666 22° Northeast  Level Estimated
09:03PM 21.3129 73.8046 22° Northeast  Level Estimated
09:04PM 21.4017 73.8427 22° Northeast  Level Estimated
09:05PM 21.4906 73.8808 22° Northeast  Level Estimated
09:06PM 21.5794 73.9189 22° Northeast  Level Estimated
09:07PM 21.6683 73.9571 22° Northeast  Level Estimated
09:08PM 21.7571 73.9953 22° Northeast  Level Estimated
09:09PM 21.8459 74.0336 22° Northeast  Level Estimated
09:10PM 21.9347 74.0719 22° Northeast  Level Estimated
09:11PM 22.0235 74.1103 22° Northeast  Level Estimated
09:12PM 22.1123 74.1487 22° Northeast  Level Estimated
09:13PM 22.2011 74.1872 22° Northeast  Level Estimated
09:14PM 22.2899 74.2257 22° Northeast  Level Estimated
09:15PM 22.3786 74.2642 22° Northeast  Level Estimated
09:16PM 22.4674 74.3028 22° Northeast  Level Estimated
09:17PM 22.5561 74.3415 22° Northeast  Level Estimated
09:18PM 22.6449 74.3802 22° Northeast  Level Estimated
09:19PM 22.7336 74.4190 22° Northeast  Level Estimated
09:20PM 22.8223 74.4578 22° Northeast  Level Estimated
09:21PM 22.9110 74.4967 22° Northeast  Level Estimated
09:22PM 22.9997 74.5356 22° Northeast  Level Estimated
09:23PM 23.0884 74.5745 22° Northeast  Level Estimated
09:24PM 23.1771 74.6136 22° Northeast  Level Estimated
09:25PM 23.2658 74.6526 22° Northeast  Level Estimated
09:26PM 23.3544 74.6917 22° Northeast  Level Estimated
09:27PM 23.4431 74.7309 22° Northeast  Level Estimated
09:28PM 23.5317 74.7701 22° Northeast  Level Estimated
09:29PM 23.6204 74.8094 22° Northeast  Level Estimated
09:30PM 23.7090 74.8488 22° Northeast  Level Estimated
09:31PM 23.7976 74.8882 22° Northeast  Level Estimated
09:32PM 23.8862 74.9276 22° Northeast  Level Estimated
09:33PM 23.9748 74.9671 22° Northeast  Level Estimated
09:34PM 24.0634 75.0066 22° Northeast  Level Estimated
09:35PM 24.1519 75.0462 22° Northeast  Level Estimated
09:36PM 24.2405 75.0859 22° Northeast  Level Estimated
09:37PM 24.3290 75.1256 22° Northeast  Level Estimated
09:38PM 24.4176 75.1654 22° Northeast  Level Estimated
09:39PM 24.5061 75.2052 22° Northeast  Level Estimated
09:40PM 24.5946 75.2451 22° Northeast  Level Estimated
09:41PM 24.6831 75.2850 22° Northeast  Level Estimated
09:42PM 24.7716 75.3250 22° Northeast  Level Estimated
09:43PM 24.8601 75.3651 22° Northeast  Level Estimated
09:44PM 24.9486 75.4052 22° Northeast  Level Estimated
09:45PM 25.0371 75.4453 22° Northeast  Level Estimated
09:46PM 25.1255 75.4855 22° Northeast  Level Estimated
09:47PM 25.2140 75.5258 22° Northeast  Level Estimated
09:48PM 25.3024 75.5662 22° Northeast  Level Estimated
09:49PM 25.3908 75.6066 22° Northeast  Level Estimated
09:50PM 25.4792 75.6470 22° Northeast  Level Estimated
09:51PM 25.5676 75.6876 22° Northeast  Level Estimated
09:52PM 25.6560 75.7281 22° Northeast  Level Estimated
09:53PM 25.7444 75.7688 22° Northeast  Level Estimated
09:54PM 25.8328 75.8095 23° Northeast  Level Estimated
09:55PM 25.9211 75.8502 23° Northeast  Level Estimated
09:56PM 26.0095 75.8911 23° Northeast  Level Estimated
09:57PM 26.0978 75.9319 23° Northeast  Level Estimated
09:58PM 26.1861 75.9729 23° Northeast  Level Estimated
09:59PM 26.2744 76.0139 23° Northeast  Level Estimated
10:00PM 26.3627 76.0549 23° Northeast  Level Estimated
10:01PM 26.4510 76.0961 23° Northeast  Level Estimated
10:02PM 26.5393 76.1373 23° Northeast  Level Estimated
10:03PM 26.6276 76.1785 23° Northeast  Level Estimated
10:04PM 26.7158 76.2198 23° Northeast  Level Estimated
10:05PM 26.8041 76.2612 23° Northeast  Level Estimated
10:06PM 26.8923 76.3027 23° Northeast  Level Estimated
10:07PM 26.9805 76.3442 23° Northeast  Level Estimated
10:08PM 27.0687 76.3858 23° Northeast  Level Estimated
10:09PM 27.1569 76.4274 23° Northeast  Level Estimated
10:10PM 27.2451 76.4691 23° Northeast  Level Estimated
10:11PM 27.3332 76.5109 23° Northeast  Level Estimated
10:12PM 27.4214 76.5528 23° Northeast  Level Estimated
10:13PM 27.5095 76.5947 23° Northeast  Level Estimated
10:14PM 27.5977 76.6367 23° Northeast  Level Estimated
10:15PM 27.6858 76.6787 23° Northeast  Level Estimated
10:16PM 27.7739 76.7208 23° Northeast  Level Estimated
10:17PM 27.8620 76.7630 23° Northeast  Level Estimated
10:18PM 27.9500 76.8052 23° Northeast  Level Estimated
10:19PM 28.0381 76.8476 23° Northeast  Level Estimated
10:20PM 28.1262 76.8900 23° Northeast  Level Estimated
10:21PM 28.2142 76.9324 23° Northeast  Level Estimated
10:22PM 28.3022 76.9749 23° Northeast  Level Estimated
10:23PM 28.3902 77.0175 23° Northeast  Level Estimated
10:24PM 28.4782 77.0602 23° Northeast  Level Estimated
10:25PM 28.5662 77.1030 23° Northeast  Level Estimated
10:26PM 28.5665 77.1031 23° Northeast  Level Estimated
10:27PM 28.5665 77.1031 270° West  Level Estimated
10:28PM 28.5665 77.1031 270° West  Level Estimated